createdAt,value
2019-03-24T00:04:37.364Z,8.00
2019-03-24T00:09:41.134Z,9.23
2019-03-24T00:14:45.262Z,8.07
2019-03-24T00:19:48.629Z,8.03
2019-03-24T00:24:52.429Z,8.30
2019-03-24T00:29:56.812Z,8.90
2019-03-24T00:35:01.017Z,10.20
2019-03-24T00:40:05.353Z,7.83
2019-03-24T00:45:09.893Z,8.17
2019-03-24T00:50:14.718Z,7.17
2019-03-24T00:55:18.672Z,9.53
2019-03-24T01:00:40.773Z,9.30
2019-03-24T01:05:44.547Z,9.60
2019-03-24T01:10:48.633Z,7.60
2019-03-24T01:15:52.508Z,8.87
2019-03-24T01:20:56.529Z,7.57
2019-03-24T01:26:00.768Z,8.77
2019-03-24T01:31:04.954Z,9.83
2019-03-24T01:36:09.156Z,9.20
2019-03-24T01:41:12.631Z,8.73
2019-03-24T01:46:16.059Z,10.00
2019-03-24T01:51:19.482Z,8.57
2019-03-24T01:56:22.893Z,8.30
2019-03-24T02:01:26.985Z,8.37
2019-03-24T02:06:32.591Z,7.40
2019-03-24T02:11:36.411Z,7.60
2019-03-24T02:16:40.759Z,9.23
2019-03-24T02:21:44.213Z,7.73
2019-03-24T02:26:47.682Z,8.27
2019-03-24T02:31:51.145Z,8.57
2019-03-24T02:36:54.311Z,7.40
2019-03-24T02:41:58.541Z,7.83
2019-03-24T02:47:01.456Z,7.37
2019-03-24T02:52:05.370Z,7.60
2019-03-24T02:57:08.383Z,6.97
2019-03-24T03:02:12.184Z,6.63
2019-03-24T03:07:16.303Z,6.73
2019-03-24T03:12:20.156Z,6.67
2019-03-24T03:17:23.986Z,6.20
2019-03-24T03:22:27.484Z,6.20
2019-03-24T03:27:31.674Z,7.30
2019-03-24T03:32:34.777Z,7.43
2019-03-24T03:37:38.083Z,7.20
2019-03-24T03:42:41.978Z,6.10
2019-03-24T03:47:45.903Z,6.47
2019-03-24T03:52:50.096Z,7.43
2019-03-24T03:57:53.873Z,7.10
2019-03-24T04:02:57.686Z,6.07
2019-03-24T04:08:00.819Z,7.27
2019-03-24T04:13:04.216Z,5.80
2019-03-24T04:18:07.321Z,6.77
2019-03-24T04:23:11.173Z,6.30
2019-03-24T04:28:15.226Z,5.57
2019-03-24T04:33:18.687Z,8.13
2019-03-24T04:38:22.116Z,5.83
2019-03-24T04:43:25.872Z,5.90
2019-03-24T04:48:29.426Z,6.80
2019-03-24T04:53:33.619Z,7.00
2019-03-24T04:58:37.399Z,6.97
2019-03-24T05:03:40.866Z,5.60
2019-03-24T05:08:45.915Z,6.50
2019-03-24T05:13:49.648Z,6.80
2019-03-24T05:18:53.648Z,7.50
2019-03-24T05:23:57.496Z,6.90
2019-03-24T05:29:01.320Z,7.60
2019-03-24T05:34:05.190Z,7.47
2019-03-24T05:39:09.034Z,6.43
2019-03-24T05:44:13.256Z,7.50
2019-03-24T05:49:17.349Z,7.07
2019-03-24T05:54:21.206Z,6.33
2019-03-24T05:59:25.468Z,6.30
2019-03-24T06:04:29.728Z,6.73
2019-03-24T06:09:33.456Z,5.80
2019-03-24T06:14:37.603Z,6.57
2019-03-24T06:19:40.706Z,6.20
2019-03-24T06:24:44.665Z,6.27
2019-03-24T06:29:48.491Z,5.97
2019-03-24T06:34:52.320Z,5.33
2019-03-24T06:39:57.171Z,6.03
2019-03-24T06:45:00.941Z,6.33
2019-03-24T06:50:04.773Z,6.80
2019-03-24T06:55:08.483Z,6.13
2019-03-24T07:00:12.502Z,7.43
2019-03-24T07:05:16.566Z,6.13
2019-03-24T07:10:20.192Z,6.10
2019-03-24T07:15:23.627Z,5.90
2019-03-24T07:20:27.428Z,6.00
2019-03-24T07:25:31.379Z,5.53
2019-03-24T07:30:34.858Z,5.13
2019-03-24T07:35:38.719Z,6.40
2019-03-24T07:40:42.139Z,5.47
2019-03-24T07:45:45.997Z,5.97
2019-03-24T07:50:49.865Z,6.17
2019-03-24T07:55:53.299Z,4.80
2019-03-24T08:00:57.567Z,5.13
2019-03-24T08:06:01.514Z,5.53
2019-03-24T08:11:05.453Z,5.20
2019-03-24T08:16:09.322Z,8.00
2019-03-24T08:21:13.122Z,4.60
2019-03-24T08:26:16.613Z,4.53
2019-03-24T08:31:20.477Z,4.87
2019-03-24T08:36:24.787Z,4.20
2019-03-24T08:41:28.651Z,5.10
2019-03-24T08:46:33.496Z,5.37
2019-03-24T08:51:37.496Z,4.67
2019-03-24T08:56:41.342Z,6.10
2019-03-24T09:01:45.671Z,6.97
2019-03-24T09:06:49.512Z,6.83
2019-03-24T09:11:53.434Z,4.60
2019-03-24T09:16:56.165Z,5.30
2019-03-24T09:21:59.977Z,4.80
2019-03-24T09:27:03.551Z,5.03
2019-03-24T09:32:06.781Z,5.33
2019-03-24T09:37:10.625Z,5.00
2019-03-24T09:42:14.795Z,5.37
2019-03-24T09:47:18.724Z,6.17
2019-03-24T09:52:22.594Z,4.90
2019-03-24T09:57:25.770Z,4.47
2019-03-24T10:02:29.829Z,4.73
2019-03-24T10:07:34.076Z,5.37
2019-03-24T10:12:37.800Z,6.50
2019-03-24T10:17:41.615Z,5.43
2019-03-24T10:22:45.125Z,5.30
2019-03-24T10:27:48.554Z,5.23
2019-03-24T10:32:52.439Z,4.20
2019-03-24T10:37:56.569Z,3.70
2019-03-24T10:43:00.081Z,3.67
2019-03-24T10:48:03.616Z,3.70
2019-03-24T10:53:07.272Z,3.50
2019-03-24T10:58:11.666Z,4.50
2019-03-24T11:03:16.152Z,4.80
2019-03-24T11:08:19.974Z,4.40
2019-03-24T11:13:23.440Z,3.60
2019-03-24T11:18:27.320Z,5.03
2019-03-24T11:23:31.517Z,3.03
2019-03-24T11:28:35.820Z,3.73
2019-03-24T11:33:39.759Z,3.63
2019-03-24T11:38:42.901Z,3.53
2019-03-24T11:43:46.014Z,3.07
2019-03-24T11:48:49.498Z,3.20
2019-03-24T11:53:53.358Z,3.20
2019-03-24T11:58:57.643Z,4.27
2019-03-24T12:04:01.122Z,2.70
2019-03-24T12:09:06.313Z,3.00
2019-03-24T12:14:10.275Z,2.27
2019-03-24T12:19:13.826Z,2.97
2019-03-24T12:24:17.927Z,2.80
2019-03-24T12:29:22.806Z,4.00
2019-03-24T12:34:27.524Z,2.70
2019-03-24T12:39:31.044Z,3.10
2019-03-24T12:44:34.571Z,2.77
2019-03-24T12:49:38.817Z,2.13
2019-03-24T12:54:42.636Z,2.00
2019-03-24T12:59:46.072Z,1.80
2019-03-24T13:04:49.565Z,2.40
2019-03-24T13:09:53.910Z,2.23
2019-03-24T13:14:58.105Z,2.17
2019-03-24T13:20:02.061Z,2.20
2019-03-24T13:25:05.891Z,2.57
2019-03-24T13:30:10.412Z,1.90
2019-03-24T13:35:14.679Z,3.00
2019-03-24T13:40:19.022Z,2.10
2019-03-24T13:45:24.873Z,2.50
2019-03-24T13:50:39.254Z,2.77
2019-03-24T13:55:43.246Z,2.60
2019-03-24T14:00:47.928Z,3.30
2019-03-24T14:05:52.148Z,2.90
2019-03-24T14:10:56.315Z,2.63
2019-03-24T14:16:00.605Z,2.00
2019-03-24T14:21:04.974Z,3.30
2019-03-24T14:26:09.205Z,2.77
2019-03-24T14:31:12.694Z,2.53
2019-03-24T14:36:17.370Z,2.60
2019-03-24T14:41:21.599Z,2.50
2019-03-24T14:46:25.351Z,2.43
2019-03-24T14:51:29.544Z,2.90
2019-03-24T14:56:34.126Z,3.43
2019-03-24T15:01:38.326Z,3.27
2019-03-24T15:06:41.854Z,6.17
2019-03-24T15:11:45.415Z,3.13
2019-03-24T15:16:49.283Z,3.00
2019-03-24T15:21:53.551Z,3.10
2019-03-24T15:26:56.949Z,2.40
2019-03-24T15:32:01.239Z,2.50
2019-03-24T15:37:05.112Z,2.20
2019-03-24T15:42:09.331Z,2.50
2019-03-24T15:47:13.117Z,2.67
2019-03-24T15:52:16.616Z,3.53
2019-03-24T15:57:20.460Z,3.63
2019-03-24T16:02:24.780Z,3.10
2019-03-24T16:07:29.089Z,2.60
2019-03-24T16:12:35.287Z,1.97
2019-03-24T16:17:41.311Z,2.13
2019-03-24T16:22:45.585Z,2.10
2019-03-24T16:27:49.173Z,2.50
2019-03-24T16:32:53.134Z,2.07
2019-03-24T16:37:56.936Z,2.60
2019-03-24T16:43:00.970Z,2.27
2019-03-24T16:48:05.264Z,2.00
2019-03-24T16:53:09.214Z,2.83
2019-03-24T16:58:13.051Z,2.00
2019-03-24T17:03:16.981Z,2.63
2019-03-24T17:08:20.497Z,2.40
2019-03-24T17:13:24.759Z,2.83
2019-03-24T17:18:28.966Z,2.17
2019-03-24T17:23:34.321Z,1.90
2019-03-24T17:28:46.970Z,2.50
2019-03-24T17:33:51.186Z,3.73
2019-03-24T17:39:00.543Z,3.50
2019-03-24T17:44:05.609Z,3.13
2019-03-24T17:49:12.248Z,3.40
2019-03-24T17:54:20.665Z,2.70
2019-03-24T17:59:26.085Z,3.53
2019-03-24T18:04:30.027Z,2.50
2019-03-24T18:09:39.320Z,7.90
2019-03-24T18:14:51.846Z,2.57
2019-03-24T18:19:57.580Z,4.27
2019-03-24T18:25:04.025Z,3.37
2019-03-24T18:30:09.756Z,4.40
2019-03-24T18:35:12.896Z,4.83
2019-03-24T18:40:17.712Z,4.83
2019-03-24T18:45:22.063Z,3.37
2019-03-24T18:50:30.134Z,3.47
2019-03-24T18:55:37.264Z,3.93
2019-03-24T19:00:43.975Z,3.23
2019-03-24T19:05:48.968Z,4.20
2019-03-24T19:10:52.740Z,3.33
2019-03-24T19:15:57.279Z,3.73
2019-03-24T19:21:12.622Z,4.23
2019-03-24T19:26:20.349Z,3.57
2019-03-24T19:31:25.397Z,2.80
2019-03-24T19:36:29.997Z,2.83
2019-03-24T19:41:33.791Z,6.30
2019-03-24T19:46:37.822Z,3.00
2019-03-24T19:51:52.082Z,3.90
2019-03-24T19:57:02.355Z,4.00
2019-03-24T20:02:10.179Z,2.70
2019-03-24T20:07:16.987Z,3.53
2019-03-24T20:12:24.404Z,3.63
2019-03-24T20:17:27.700Z,3.63
2019-03-24T20:22:42.481Z,4.40
2019-03-24T20:27:50.267Z,3.33
2019-03-24T20:32:54.715Z,3.23
2019-03-24T20:37:58.876Z,3.27
2019-03-24T20:43:03.043Z,2.67
2019-03-24T20:48:08.439Z,3.13
2019-03-24T20:53:18.497Z,3.40
2019-03-24T20:58:27.967Z,3.80
2019-03-24T21:03:31.699Z,3.60
2019-03-24T21:08:35.508Z,2.90
2019-03-24T21:13:39.855Z,3.33
2019-03-24T21:18:43.593Z,5.03
2019-03-24T21:23:47.329Z,4.00
2019-03-24T21:29:01.425Z,5.30
2019-03-24T21:34:06.578Z,3.40
2019-03-24T21:39:09.726Z,4.07
2019-03-24T21:44:13.853Z,4.63
2019-03-24T21:49:17.685Z,3.47
2019-03-24T21:54:20.898Z,4.53
2019-03-24T21:59:24.305Z,3.47
2019-03-24T22:04:28.154Z,4.60
2019-03-24T22:09:32.217Z,4.70
2019-03-24T22:14:36.025Z,4.27
2019-03-24T22:19:40.233Z,5.63
2019-03-24T22:24:44.390Z,3.93
2019-03-24T22:29:47.925Z,5.73
2019-03-24T22:34:51.743Z,6.07
2019-03-24T22:39:55.313Z,4.87
2019-03-24T22:44:59.095Z,4.43
2019-03-24T22:50:03.098Z,4.33
2019-03-24T22:55:08.293Z,3.90
2019-03-24T23:00:17.823Z,6.47
2019-03-24T23:05:21.287Z,3.90
2019-03-24T23:10:25.428Z,4.03
2019-03-24T23:15:28.539Z,5.97
2019-03-24T23:20:31.955Z,4.53
2019-03-24T23:25:35.434Z,4.67
2019-03-24T23:30:39.688Z,4.33
2019-03-24T23:35:43.809Z,4.20
2019-03-24T23:40:47.325Z,6.07
2019-03-24T23:45:51.580Z,8.20
2019-03-24T23:50:55.907Z,6.13
2019-03-24T23:56:00.146Z,6.30
